createdAt,value
2018-02-08T00:03:05.849Z,4
2018-02-08T00:13:05.859Z,4
2018-02-08T00:23:05.791Z,4
2018-02-08T00:33:05.863Z,4
2018-02-08T00:43:05.820Z,4
2018-02-08T00:53:05.770Z,4
2018-02-08T01:03:05.681Z,4
2018-02-08T01:13:05.644Z,4
2018-02-08T01:23:05.693Z,4
2018-02-08T01:33:05.683Z,4
2018-02-08T01:43:05.738Z,4
2018-02-08T01:53:05.664Z,4
2018-02-08T02:03:05.746Z,4
2018-02-08T02:13:05.738Z,4
2018-02-08T02:23:05.671Z,4
2018-02-08T02:33:05.745Z,4
2018-02-08T02:43:05.690Z,4
2018-02-08T02:53:05.777Z,4
2018-02-08T03:03:05.722Z,4
2018-02-08T03:13:05.801Z,4
2018-02-08T03:23:05.775Z,4
2018-02-08T03:33:05.723Z,4
2018-02-08T03:43:05.746Z,4
2018-02-08T03:53:05.728Z,4
2018-02-08T04:03:05.781Z,4
2018-02-08T04:13:05.761Z,4
2018-02-08T04:23:05.843Z,4
2018-02-08T04:33:05.788Z,4
2018-02-08T04:43:05.871Z,4
2018-02-08T04:53:05.808Z,4
2018-02-08T05:03:06.136Z,4
2018-02-08T05:13:05.814Z,4
2018-02-08T05:23:05.791Z,4
2018-02-08T05:33:05.871Z,4
2018-02-08T05:43:05.807Z,4
2018-02-08T05:53:05.878Z,4
2018-02-08T06:03:05.817Z,8
2018-02-08T06:13:05.884Z,4
2018-02-08T06:23:05.874Z,4
2018-02-08T06:33:05.797Z,12
2018-02-08T06:43:05.968Z,52
2018-02-08T06:53:05.859Z,164
2018-02-08T07:03:05.896Z,424
2018-02-08T07:13:05.874Z,808
2018-02-08T07:23:05.913Z,1296
2018-02-08T07:33:05.916Z,1812
2018-02-08T07:43:05.963Z,2172
2018-02-08T07:53:05.994Z,2416
2018-02-08T08:03:05.935Z,3236
2018-02-08T08:13:06.098Z,4628
2018-02-08T08:23:05.923Z,5388
2018-02-08T08:33:06.065Z,5696
2018-02-08T08:43:05.941Z,5144
2018-02-08T08:53:06.118Z,4232
2018-02-08T09:03:05.968Z,3244
2018-02-08T09:13:41.687Z,3184
2018-02-08T09:23:06.129Z,2888
2018-02-08T09:33:06.065Z,3448
2018-02-08T09:43:05.992Z,3920
2018-02-08T09:53:05.951Z,3908
2018-02-08T10:03:06.051Z,3976
2018-02-08T10:13:05.968Z,3904
2018-02-08T10:23:06.076Z,3820
2018-02-08T10:33:06.149Z,3752
2018-02-08T10:43:06.123Z,3920
2018-02-08T10:53:06.088Z,3952
2018-02-08T11:03:06.104Z,4056
2018-02-08T11:13:06.098Z,4156
2018-02-08T11:23:06.014Z,3928
2018-02-08T11:33:06.462Z,3968
2018-02-08T11:43:06.075Z,4156
2018-02-08T11:53:06.120Z,4148
2018-02-08T12:03:06.091Z,4064
2018-02-08T12:13:06.127Z,3964
2018-02-08T12:23:06.078Z,3984
2018-02-08T12:33:06.166Z,3980
2018-02-08T12:43:06.148Z,4036
2018-02-08T12:53:06.053Z,3836
2018-02-08T13:03:06.145Z,3900
2018-02-08T13:13:06.242Z,3820
2018-02-08T13:23:06.157Z,3424
2018-02-08T13:33:06.130Z,3104
2018-02-08T13:43:06.207Z,3108
2018-02-08T13:53:06.156Z,2980
2018-02-08T14:03:06.226Z,2948
2018-02-08T14:13:06.230Z,2872
2018-02-08T14:23:06.509Z,2764
2018-02-08T14:33:06.490Z,2664
2018-02-08T14:43:06.262Z,2560
2018-02-08T14:53:06.235Z,2440
2018-02-08T15:03:06.183Z,2300
2018-02-08T15:13:06.211Z,2140
2018-02-08T15:23:06.249Z,1952
2018-02-08T15:33:06.286Z,1752
2018-02-08T15:43:06.241Z,1504
2018-02-08T15:53:06.326Z,1224
2018-02-08T16:03:06.253Z,932
2018-02-08T16:13:06.296Z,596
2018-02-08T16:23:06.273Z,328
2018-02-08T16:33:06.411Z,132
2018-02-08T16:43:06.288Z,32
2018-02-08T16:53:06.416Z,8
2018-02-08T17:03:06.724Z,4
2018-02-08T17:13:06.353Z,4
2018-02-08T17:23:06.341Z,8
2018-02-08T17:33:06.355Z,4
2018-02-08T17:43:06.330Z,4
2018-02-08T17:53:06.405Z,4
2018-02-08T18:03:06.363Z,4
2018-02-08T18:13:06.361Z,4
2018-02-08T18:23:06.386Z,4
2018-02-08T18:33:06.361Z,4
2018-02-08T18:43:06.459Z,4
2018-02-08T18:53:06.375Z,4
2018-02-08T19:03:06.521Z,4
2018-02-08T19:13:06.436Z,4
2018-02-08T19:23:06.398Z,4
2018-02-08T19:33:06.461Z,4
2018-02-08T19:43:06.416Z,4
2018-02-08T19:53:06.469Z,4
2018-02-08T20:03:06.483Z,4
2018-02-08T20:13:06.509Z,4
2018-02-08T20:23:06.365Z,4
2018-02-08T20:33:06.504Z,4
2018-02-08T20:43:06.555Z,4
2018-02-08T20:53:06.525Z,4
2018-02-08T21:03:06.452Z,4
2018-02-08T21:13:06.426Z,4
2018-02-08T21:23:06.498Z,4
2018-02-08T21:33:06.493Z,4
2018-02-08T21:43:06.510Z,4
2018-02-08T21:53:06.520Z,4
2018-02-08T22:03:06.581Z,4
2018-02-08T22:13:06.499Z,4
2018-02-08T22:23:06.587Z,4
2018-02-08T22:33:06.522Z,4
2018-02-08T22:43:06.507Z,4
2018-02-08T22:53:06.577Z,4
2018-02-08T23:03:06.537Z,4
2018-02-08T23:13:06.605Z,4
2018-02-08T23:23:06.538Z,4
2018-02-08T23:33:06.586Z,4
2018-02-08T23:43:06.599Z,4
2018-02-08T23:53:06.618Z,4
